createdAt,value
2023-06-27T00:00:54.158Z,18.50
2023-06-27T00:03:39.955Z,18.40
2023-06-27T00:06:25.629Z,18.40
2023-06-27T00:09:11.852Z,18.40
2023-06-27T00:11:57.106Z,18.40
2023-06-27T00:14:45.970Z,18.40
2023-06-27T00:17:34.239Z,18.40
2023-06-27T00:20:19.944Z,18.40
2023-06-27T00:23:34.309Z,18.40
2023-06-27T00:26:19.864Z,18.40
2023-06-27T00:29:06.077Z,18.40
2023-06-27T00:31:51.491Z,18.30
2023-06-27T00:34:36.807Z,18.30
2023-06-27T00:37:22.335Z,18.30
2023-06-27T00:40:09.608Z,18.30
2023-06-27T00:42:55.939Z,18.20
2023-06-27T00:45:41.356Z,18.20
2023-06-27T00:48:30.003Z,18.10
2023-06-27T00:51:17.667Z,18.10
2023-06-27T00:54:04.005Z,18.10
2023-06-27T00:56:53.780Z,18.00
2023-06-27T00:59:41.787Z,18.00
2023-06-27T01:02:27.912Z,18.00
2023-06-27T01:05:41.711Z,17.90
2023-06-27T01:08:39.459Z,17.90
2023-06-27T01:11:30.673Z,17.90
2023-06-27T01:14:19.312Z,17.90
2023-06-27T01:17:05.234Z,17.90
2023-06-27T01:19:54.091Z,17.90
2023-06-27T01:22:49.230Z,17.90
2023-06-27T01:25:35.396Z,17.90
2023-06-27T01:28:20.753Z,17.90
2023-06-27T01:31:07.718Z,17.90
2023-06-27T01:34:02.239Z,17.90
2023-06-27T01:37:09.632Z,17.90
2023-06-27T01:40:02.105Z,18.00
2023-06-27T01:43:10.784Z,18.00
2023-06-27T01:45:57.588Z,18.00
2023-06-27T01:48:44.624Z,18.00
2023-06-27T01:51:30.882Z,17.90
2023-06-27T01:54:16.406Z,17.90
2023-06-27T01:57:02.036Z,17.90
2023-06-27T01:59:47.693Z,17.90
2023-06-27T02:02:33.662Z,17.90
2023-06-27T02:05:24.598Z,17.80
2023-06-27T02:08:09.972Z,17.80
2023-06-27T02:10:58.593Z,17.80
2023-06-27T02:13:44.312Z,17.80
2023-06-27T02:16:29.647Z,17.80
2023-06-27T02:19:15.250Z,17.80
2023-06-27T02:22:00.801Z,17.90
2023-06-27T02:24:46.523Z,17.90
2023-06-27T02:27:31.906Z,17.90
2023-06-27T02:30:17.452Z,18.00
2023-06-27T02:33:05.329Z,18.00
2023-06-27T02:35:51.186Z,18.00
2023-06-27T02:38:37.103Z,17.90
2023-06-27T02:41:23.724Z,17.80
2023-06-27T02:44:09.947Z,17.70
2023-06-27T02:46:55.526Z,17.60
2023-06-27T02:49:43.502Z,17.50
2023-06-27T02:52:29.694Z,17.40
2023-06-27T02:55:15.929Z,17.30
2023-06-27T02:58:01.698Z,17.30
2023-06-27T03:00:47.651Z,17.20
2023-06-27T03:03:35.140Z,17.20
2023-06-27T03:06:24.032Z,17.20
2023-06-27T03:09:12.778Z,17.20
2023-06-27T03:11:57.986Z,17.20
2023-06-27T03:14:46.421Z,17.30
2023-06-27T03:17:32.949Z,17.30
2023-06-27T03:20:18.319Z,17.30
2023-06-27T03:23:04.993Z,17.30
2023-06-27T03:25:52.552Z,17.30
2023-06-27T03:28:38.920Z,17.30
2023-06-27T03:31:25.228Z,17.30
2023-06-27T03:34:11.676Z,17.30
2023-06-27T03:36:57.443Z,17.30
2023-06-27T03:39:42.746Z,17.30
2023-06-27T03:42:30.532Z,17.30
2023-06-27T03:45:16.170Z,17.30
2023-06-27T03:48:01.779Z,17.20
2023-06-27T03:50:47.311Z,17.20
2023-06-27T03:53:32.879Z,17.20
2023-06-27T03:56:18.524Z,17.10
2023-06-27T03:59:04.428Z,17.10
2023-06-27T04:01:50.464Z,17.10
2023-06-27T04:04:36.046Z,17.10
2023-06-27T04:07:21.867Z,17.10
2023-06-27T04:10:08.169Z,17.00
2023-06-27T04:12:55.409Z,17.00
2023-06-27T04:15:41.623Z,17.00
2023-06-27T04:18:31.209Z,17.00
2023-06-27T04:21:17.047Z,17.00
2023-06-27T04:24:04.287Z,16.90
2023-06-27T04:26:50.374Z,16.90
2023-06-27T04:29:39.019Z,16.90
2023-06-27T04:32:24.564Z,16.90
2023-06-27T04:35:11.074Z,17.00
2023-06-27T04:37:57.980Z,17.00
2023-06-27T04:40:43.172Z,16.90
2023-06-27T04:43:30.150Z,17.00
2023-06-27T04:46:16.060Z,17.00
2023-06-27T04:49:01.966Z,17.00
2023-06-27T04:51:50.347Z,17.00
2023-06-27T04:54:36.851Z,17.00
2023-06-27T04:57:22.229Z,17.00
2023-06-27T05:00:10.822Z,17.10
2023-06-27T05:02:57.731Z,17.10
2023-06-27T05:05:43.812Z,17.20
2023-06-27T05:08:29.559Z,17.20
2023-06-27T05:11:15.379Z,17.30
2023-06-27T05:14:02.719Z,17.30
2023-06-27T05:16:48.050Z,17.40
2023-06-27T05:19:33.714Z,17.40
2023-06-27T05:22:19.377Z,17.40
2023-06-27T05:25:05.220Z,17.50
2023-06-27T05:27:50.663Z,17.60
2023-06-27T05:30:36.365Z,17.70
2023-06-27T05:33:22.176Z,17.70
2023-06-27T05:36:07.934Z,17.80
2023-06-27T05:38:53.138Z,17.80
2023-06-27T05:41:38.677Z,17.90
2023-06-27T05:44:24.306Z,18.00
2023-06-27T05:47:10.091Z,18.10
2023-06-27T05:49:55.672Z,18.20
2023-06-27T05:52:44.405Z,18.30
2023-06-27T05:55:30.930Z,18.30
2023-06-27T05:58:16.688Z,18.40
2023-06-27T06:01:01.995Z,18.50
2023-06-27T06:03:47.662Z,18.60
2023-06-27T06:06:39.679Z,18.70
2023-06-27T06:09:24.966Z,18.70
2023-06-27T06:12:10.620Z,18.80
2023-06-27T06:14:56.184Z,18.80
2023-06-27T06:17:41.963Z,18.80
2023-06-27T06:20:30.506Z,18.90
2023-06-27T06:23:15.951Z,19.00
2023-06-27T06:26:01.408Z,19.00
2023-06-27T06:28:47.397Z,19.10
2023-06-27T06:31:33.952Z,19.20
2023-06-27T06:34:19.592Z,19.30
2023-06-27T06:37:05.587Z,19.40
2023-06-27T06:39:51.075Z,19.40
2023-06-27T06:42:37.920Z,19.60
2023-06-27T06:45:24.291Z,19.90
2023-06-27T06:48:10.188Z,20.20
2023-06-27T06:50:55.692Z,20.40
2023-06-27T06:53:41.016Z,20.50
2023-06-27T06:56:26.613Z,20.70
2023-06-27T06:59:15.429Z,20.80
2023-06-27T07:02:01.418Z,21.00
2023-06-27T07:04:46.810Z,21.10
2023-06-27T07:07:35.324Z,21.30
2023-06-27T07:10:20.860Z,21.50
2023-06-27T07:13:06.790Z,21.70
2023-06-27T07:15:52.564Z,22.00
2023-06-27T07:18:38.098Z,22.20
2023-06-27T07:21:23.683Z,22.50
2023-06-27T07:24:08.974Z,22.80
2023-06-27T07:26:54.673Z,23.00
2023-06-27T07:29:40.202Z,23.20
2023-06-27T07:32:28.100Z,23.30
2023-06-27T07:35:13.816Z,23.30
2023-06-27T07:37:59.046Z,23.30
2023-06-27T07:40:45.742Z,23.50
2023-06-27T07:43:31.269Z,23.50
2023-06-27T07:46:17.101Z,23.60
2023-06-27T07:49:03.919Z,23.60
2023-06-27T07:51:52.656Z,23.60
2023-06-27T07:54:38.189Z,23.80
2023-06-27T07:57:23.752Z,23.80
2023-06-27T08:00:13.317Z,23.80
2023-06-27T08:02:59.001Z,23.70
2023-06-27T08:05:44.890Z,23.70
2023-06-27T08:08:30.635Z,23.60
2023-06-27T08:11:16.120Z,23.70
2023-06-27T08:14:01.851Z,23.70
2023-06-27T08:16:47.421Z,23.70
2023-06-27T08:19:32.794Z,23.80
2023-06-27T08:22:18.423Z,23.80
2023-06-27T08:25:04.258Z,23.80
2023-06-27T08:27:54.923Z,23.80
2023-06-27T08:30:41.550Z,23.80
2023-06-27T08:33:27.300Z,23.80
2023-06-27T08:36:12.887Z,23.90
2023-06-27T08:38:58.537Z,24.00
2023-06-27T08:41:46.626Z,24.00
2023-06-27T08:44:33.037Z,23.90
2023-06-27T08:47:23.208Z,24.00
2023-06-27T08:50:14.592Z,23.90
2023-06-27T08:53:08.228Z,24.00
2023-06-27T08:56:11.532Z,24.10
2023-06-27T08:59:02.468Z,24.30
2023-06-27T09:01:49.897Z,24.50
2023-06-27T09:04:42.579Z,24.60
2023-06-27T09:07:29.022Z,24.70
2023-06-27T09:10:16.161Z,24.80
2023-06-27T09:13:02.839Z,24.90
2023-06-27T09:15:48.515Z,24.90
2023-06-27T09:18:36.900Z,25.10
2023-06-27T09:21:32.597Z,25.40
2023-06-27T09:24:22.413Z,25.50
2023-06-27T09:27:34.444Z,25.50
2023-06-27T09:30:20.273Z,25.60
2023-06-27T09:33:05.960Z,25.70
2023-06-27T09:36:01.775Z,25.70
2023-06-27T09:38:54.824Z,25.60
2023-06-27T09:41:42.674Z,25.50
2023-06-27T09:44:28.301Z,25.60
2023-06-27T09:47:13.807Z,25.70
2023-06-27T09:49:59.279Z,25.80
2023-06-27T09:53:06.684Z,25.90
2023-06-27T09:56:03.617Z,25.90
2023-06-27T09:58:49.077Z,25.90
2023-06-27T10:01:37.798Z,25.90
2023-06-27T10:07:15.803Z,26.20
2023-06-27T10:10:01.983Z,26.30
2023-06-27T10:12:48.206Z,26.50
2023-06-27T10:15:33.726Z,26.50
2023-06-27T10:18:19.366Z,26.50
2023-06-27T10:21:05.425Z,26.30
2023-06-27T10:23:53.739Z,26.20
2023-06-27T10:26:49.684Z,26.10
2023-06-27T10:29:42.216Z,26.20
2023-06-27T10:32:45.333Z,26.40
2023-06-27T10:35:31.141Z,26.40
2023-06-27T10:38:21.986Z,26.30
2023-06-27T10:41:11.172Z,26.40
2023-06-27T10:43:56.759Z,26.70
2023-06-27T10:46:42.212Z,27.00
2023-06-27T10:49:36.937Z,27.40
2023-06-27T10:52:26.512Z,27.70
2023-06-27T10:55:20.262Z,27.80
2023-06-27T10:58:15.613Z,27.80
2023-06-27T11:01:01.482Z,27.80
2023-06-27T11:03:58.328Z,28.20
2023-06-27T11:06:46.887Z,28.30
2023-06-27T11:09:32.580Z,28.10
2023-06-27T11:12:19.328Z,28.00
2023-06-27T11:15:05.519Z,27.90
2023-06-27T11:17:51.551Z,27.90
2023-06-27T11:20:37.546Z,27.90
2023-06-27T11:23:23.837Z,27.80
2023-06-27T11:26:09.277Z,27.90
2023-06-27T11:28:58.381Z,28.00
2023-06-27T11:31:44.557Z,28.30
2023-06-27T11:34:30.414Z,28.60
2023-06-27T11:37:20.577Z,28.80
2023-06-27T11:40:08.695Z,28.80
2023-06-27T11:43:07.774Z,29.20
2023-06-27T11:45:56.082Z,29.00
2023-06-27T11:48:44.012Z,29.00
2023-06-27T11:51:40.109Z,29.20
2023-06-27T11:54:25.658Z,29.30
2023-06-27T11:57:13.836Z,29.40
2023-06-27T11:59:59.597Z,29.40
2023-06-27T12:03:07.812Z,29.20
2023-06-27T12:05:56.680Z,29.30
2023-06-27T12:08:48.087Z,29.90
2023-06-27T12:11:36.181Z,30.20
2023-06-27T12:14:26.426Z,30.00
2023-06-27T12:17:22.287Z,29.70
2023-06-27T12:20:08.352Z,29.40
2023-06-27T12:22:56.761Z,29.50
2023-06-27T12:25:43.027Z,29.60
2023-06-27T12:28:28.416Z,29.90
2023-06-27T12:31:13.808Z,30.40
2023-06-27T12:34:02.563Z,30.50
2023-06-27T12:36:47.807Z,30.00
2023-06-27T12:39:36.526Z,29.60
2023-06-27T12:42:22.951Z,29.60
2023-06-27T12:45:08.934Z,29.50
2023-06-27T12:47:54.450Z,29.60
2023-06-27T12:50:40.233Z,30.40
2023-06-27T12:53:26.493Z,30.90
2023-06-27T12:56:13.620Z,31.30
2023-06-27T12:58:59.038Z,31.50
2023-06-27T13:01:56.689Z,31.70
2023-06-27T13:04:42.049Z,32.10
2023-06-27T13:07:27.979Z,32.10
2023-06-27T13:10:13.785Z,32.10
2023-06-27T13:12:59.516Z,32.10
2023-06-27T13:15:53.527Z,31.80
2023-06-27T13:18:55.220Z,31.80
2023-06-27T13:21:41.379Z,31.80
2023-06-27T13:24:29.836Z,31.30
2023-06-27T13:27:15.453Z,30.90
2023-06-27T13:30:02.728Z,31.20
2023-06-27T13:32:48.335Z,32.70
2023-06-27T13:35:33.892Z,34.00
2023-06-27T13:38:19.115Z,33.70
2023-06-27T13:41:04.802Z,34.40
2023-06-27T13:47:00.352Z,35.10
2023-06-27T13:49:45.495Z,35.30
2023-06-27T13:52:31.189Z,34.70
2023-06-27T13:55:17.306Z,34.30
2023-06-27T13:58:02.542Z,34.90
2023-06-27T14:00:52.155Z,35.70
2023-06-27T14:03:37.641Z,36.50
2023-06-27T14:06:23.160Z,36.60
2023-06-27T14:09:11.943Z,36.60
2023-06-27T14:11:57.597Z,37.00
2023-06-27T14:14:45.128Z,35.50
2023-06-27T14:17:31.630Z,33.70
2023-06-27T14:20:19.530Z,33.80
2023-06-27T14:23:05.831Z,34.60
2023-06-27T14:25:51.543Z,34.60
2023-06-27T14:28:37.273Z,34.50
2023-06-27T14:31:25.481Z,34.40
2023-06-27T14:34:11.279Z,33.20
2023-06-27T14:37:05.897Z,31.90
2023-06-27T14:39:54.378Z,31.30
2023-06-27T14:42:39.862Z,31.00
2023-06-27T14:45:25.551Z,31.50
2023-06-27T14:48:11.070Z,32.50
2023-06-27T14:50:59.403Z,32.80
2023-06-27T14:53:46.836Z,32.70
2023-06-27T14:56:32.605Z,31.70
2023-06-27T14:59:20.913Z,30.50
2023-06-27T15:02:06.641Z,29.60
2023-06-27T15:04:54.680Z,28.90
2023-06-27T15:07:43.522Z,28.40
2023-06-27T15:10:29.282Z,28.30
2023-06-27T15:13:16.126Z,28.80
2023-06-27T15:16:01.425Z,29.40
2023-06-27T15:18:48.359Z,29.70
2023-06-27T15:21:36.031Z,30.00
2023-06-27T15:24:21.752Z,30.30
2023-06-27T15:27:07.172Z,30.00
2023-06-27T15:29:54.591Z,29.70
2023-06-27T15:32:41.068Z,29.50
2023-06-27T15:35:26.449Z,29.20
2023-06-27T15:38:12.050Z,29.00
2023-06-27T15:40:57.641Z,29.00
2023-06-27T15:43:44.372Z,29.10
2023-06-27T15:46:32.644Z,29.30
2023-06-27T15:49:19.023Z,29.50
2023-06-27T15:52:04.500Z,29.50
2023-06-27T15:54:50.308Z,29.20
2023-06-27T15:57:35.795Z,28.80
2023-06-27T16:00:34.414Z,28.60
2023-06-27T16:03:20.246Z,28.70
2023-06-27T16:06:06.170Z,28.60
2023-06-27T16:08:51.671Z,28.50
2023-06-27T16:11:36.964Z,28.40
2023-06-27T16:14:22.740Z,28.30
2023-06-27T16:17:12.410Z,28.10
2023-06-27T16:19:57.915Z,27.70
2023-06-27T16:22:43.617Z,27.40
2023-06-27T16:25:31.612Z,27.10
2023-06-27T16:28:17.668Z,27.00
2023-06-27T16:31:04.681Z,26.80
2023-06-27T16:33:51.400Z,26.80
2023-06-27T16:36:36.671Z,26.70
2023-06-27T16:39:23.928Z,26.60
2023-06-27T16:42:09.285Z,26.60
2023-06-27T16:44:54.949Z,26.80
2023-06-27T16:47:40.670Z,27.00
2023-06-27T16:50:26.534Z,27.10
2023-06-27T16:53:13.327Z,27.00
2023-06-27T16:55:59.142Z,27.00
2023-06-27T16:58:44.803Z,27.10
2023-06-27T17:01:38.341Z,26.90
2023-06-27T17:04:24.087Z,26.50
2023-06-27T17:07:09.713Z,26.10
2023-06-27T17:09:55.474Z,25.70
2023-06-27T17:12:41.281Z,25.50
2023-06-27T17:15:27.705Z,25.50
2023-06-27T17:18:14.022Z,25.50
2023-06-27T17:20:59.440Z,25.50
2023-06-27T17:23:44.680Z,25.40
2023-06-27T17:26:30.447Z,25.20
2023-06-27T17:29:15.979Z,25.00
2023-06-27T17:32:01.249Z,24.70
2023-06-27T17:34:47.230Z,24.50
2023-06-27T17:37:32.810Z,24.20
2023-06-27T17:40:18.655Z,24.10
2023-06-27T17:43:07.308Z,24.00
2023-06-27T17:45:52.954Z,23.80
2023-06-27T17:48:38.549Z,23.60
2023-06-27T17:51:24.075Z,23.50
2023-06-27T17:54:09.885Z,23.30
2023-06-27T17:56:55.526Z,23.20
2023-06-27T17:59:41.732Z,23.10
2023-06-27T18:02:27.254Z,22.90
2023-06-27T18:05:12.758Z,22.70
2023-06-27T18:07:58.436Z,22.60
2023-06-27T18:10:45.284Z,22.40
2023-06-27T18:13:30.965Z,22.30
2023-06-27T18:16:16.328Z,22.10
2023-06-27T18:19:01.936Z,22.00
2023-06-27T18:21:49.524Z,21.80
2023-06-27T18:24:36.515Z,21.70
2023-06-27T18:27:22.557Z,21.50
2023-06-27T18:30:08.382Z,21.30
2023-06-27T18:32:54.082Z,21.10
2023-06-27T18:35:42.609Z,21.00
2023-06-27T18:38:28.780Z,20.90
2023-06-27T18:41:14.713Z,20.80
2023-06-27T18:44:00.483Z,20.70
2023-06-27T18:46:45.798Z,20.60
2023-06-27T18:49:33.153Z,20.50
2023-06-27T18:52:18.819Z,20.50
2023-06-27T18:55:04.756Z,20.40
2023-06-27T18:57:50.064Z,20.40
2023-06-27T19:00:35.728Z,20.30
2023-06-27T19:03:21.669Z,20.20
2023-06-27T19:06:07.345Z,20.10
2023-06-27T19:08:52.751Z,20.10
2023-06-27T19:11:38.872Z,20.00
2023-06-27T19:14:24.225Z,20.00
2023-06-27T19:17:09.821Z,19.90
2023-06-27T19:19:57.073Z,19.80
2023-06-27T19:22:42.836Z,19.80
2023-06-27T19:25:31.113Z,19.80
2023-06-27T19:28:16.451Z,19.70
2023-06-27T19:31:03.424Z,19.60
2023-06-27T19:33:54.085Z,19.60
2023-06-27T19:36:40.067Z,19.50
2023-06-27T19:39:29.159Z,19.50
2023-06-27T19:42:14.820Z,19.40
2023-06-27T19:45:00.268Z,19.40
2023-06-27T19:47:48.741Z,19.30
2023-06-27T19:50:34.366Z,19.30
2023-06-27T19:53:21.184Z,19.20
2023-06-27T19:56:08.024Z,19.20
2023-06-27T19:58:53.335Z,19.10
2023-06-27T20:01:39.123Z,19.10
2023-06-27T20:04:24.874Z,19.00
2023-06-27T20:07:10.999Z,19.00
2023-06-27T20:09:56.481Z,18.90
2023-06-27T20:12:43.245Z,18.90
2023-06-27T20:15:28.700Z,18.90
2023-06-27T20:18:14.146Z,18.90
2023-06-27T20:20:59.407Z,18.80
2023-06-27T20:23:46.170Z,18.80
2023-06-27T20:26:31.886Z,18.70
2023-06-27T20:29:17.945Z,18.70
2023-06-27T20:32:06.527Z,18.70
2023-06-27T20:34:53.150Z,18.70
2023-06-27T20:37:38.734Z,18.70
2023-06-27T20:40:23.913Z,18.60
2023-06-27T20:43:09.360Z,18.60
2023-06-27T20:45:54.920Z,18.60
2023-06-27T20:48:40.789Z,18.50
2023-06-27T20:51:26.270Z,18.50
2023-06-27T20:54:11.722Z,18.50
2023-06-27T20:56:57.475Z,18.40
2023-06-27T20:59:44.764Z,18.40
2023-06-27T21:02:32.533Z,18.30
2023-06-27T21:05:18.421Z,18.30
2023-06-27T21:08:04.284Z,18.30
2023-06-27T21:10:51.069Z,18.20
2023-06-27T21:13:36.441Z,18.10
2023-06-27T21:16:21.609Z,18.10
2023-06-27T21:19:07.166Z,18.10
2023-06-27T21:21:52.483Z,18.10
2023-06-27T21:24:38.445Z,18.00
2023-06-27T21:27:34.294Z,18.00
2023-06-27T21:30:28.220Z,18.00
2023-06-27T21:33:15.941Z,18.00
2023-06-27T21:36:07.471Z,18.00
2023-06-27T21:38:54.871Z,17.90
2023-06-27T21:41:41.614Z,17.90
2023-06-27T21:44:27.197Z,17.80
2023-06-27T21:47:12.822Z,17.80
2023-06-27T21:49:59.529Z,17.70
2023-06-27T21:52:44.850Z,17.70
2023-06-27T21:55:30.731Z,17.70
2023-06-27T21:58:16.281Z,17.70
2023-06-27T22:01:04.898Z,17.70
2023-06-27T22:03:53.176Z,17.70
2023-06-27T22:06:44.020Z,17.70
2023-06-27T22:09:30.341Z,17.70
2023-06-27T22:12:16.240Z,17.70
2023-06-27T22:15:04.210Z,17.70
2023-06-27T22:17:51.684Z,17.70
2023-06-27T22:20:37.255Z,17.70
2023-06-27T22:23:23.007Z,17.70
2023-06-27T22:26:08.543Z,17.70
2023-06-27T22:28:53.892Z,17.70
2023-06-27T22:31:39.759Z,17.70
2023-06-27T22:34:25.388Z,17.70
2023-06-27T22:37:11.106Z,17.70
2023-06-27T22:39:56.808Z,17.70
2023-06-27T22:42:42.246Z,17.70
2023-06-27T22:45:27.900Z,17.70
2023-06-27T22:48:13.631Z,17.70
2023-06-27T22:50:59.642Z,17.70
2023-06-27T22:53:45.576Z,17.70
2023-06-27T22:56:34.774Z,17.70
2023-06-27T22:59:21.528Z,17.70
2023-06-27T23:02:06.917Z,17.70
2023-06-27T23:04:52.516Z,17.70
2023-06-27T23:07:38.475Z,17.70
2023-06-27T23:10:24.060Z,17.70
2023-06-27T23:13:11.251Z,17.70
2023-06-27T23:16:00.188Z,17.70
2023-06-27T23:18:46.585Z,17.60
2023-06-27T23:21:35.438Z,17.60
2023-06-27T23:24:28.033Z,17.60
2023-06-27T23:27:14.730Z,17.60
2023-06-27T23:30:04.749Z,17.60
2023-06-27T23:32:55.961Z,17.70
2023-06-27T23:35:41.873Z,17.60
2023-06-27T23:38:27.541Z,17.60
2023-06-27T23:41:14.737Z,17.60
2023-06-27T23:44:00.707Z,17.60
2023-06-27T23:46:46.351Z,17.50
2023-06-27T23:49:32.109Z,17.60
2023-06-27T23:52:18.949Z,17.60
2023-06-27T23:55:05.456Z,17.60
2023-06-27T23:57:51.105Z,17.50
